Fairfield, CA

6:17 AM PDT on August 29, 2016 (GMT -0700)
Round Hill West | | Change Station

Elev 78 ft 38.27 °N, 122.06 °W | Updated 4 seconds ago

Clear
Clear
58.2 °F
Feels Like 58.2 °F
N
7.0
Wind Variable Wind from SW
Gusts 13.0 mph

Today
High -- | Low -- °F
--% Chance of Precip.
Yesterday
High -- | Low -- °F
Precip. -- in
Pressure 30.02 in
Visibility 10.0 miles
Clouds Clear
Dew Point 50 °F
Humidity 74%
Rainfall 0.00 in
Snow Depth Not available.
6:35 AM 7:41 PM
Waning Crescent, 9% visible
METAR KSUU 291258Z AUTO 22019KT 10SM CLR 13/11 A3000 RMK AO2 SLP165 T01280110 PWINO PNO $
Pressure 30.02 in
Visibility 10.0 miles
Clouds Clear
Dew Point 50 °F
Humidity 74%
Rainfall 0.00 in
Snow Depth Not available.
6:35 AM 7:41 PM
Waning Crescent, 9% visible
METAR KSUU 291258Z AUTO 22019KT 10SM CLR 13/11 A3000 RMK AO2 SLP165 T01280110 PWINO PNO $

10-Day Weather Forecast

Almanac

Astronomy

Aug. 29, 2016 Rise Set
Actual Time
Civil Twilight
Nautical Twilight
Astronomical Twilight
Moon
Length of Visible Light
Length of Day
Tomorrow will be .
, % of the Moon is Illuminated

Today's Extremes

State Highs State Lows

Community

WunderPhotos

Upload Photos

1,935,817 photos uploaded!

WunderBlog® & News

Nearby

Air Quality

  Air Quality AQ Index Pollutant
Not available.

Snow Depth

Station Depth Elevation

Earthquake Activity

City Distance Mag. Time & Date
Minimum magnitude displayed is 2.5.

Coastal Water Temperatures

Place Temperature

Stations

Nearby Weather Stations

Station Location Temp. Windchill Dew Point Humidity Wind Precip. Elev Updated Type
                   

Watches & Warnings

There are currently no watches in effect.